»·PEaware :: N990CP KSDM-KVNY

N990CP :: KSDM-KVNY

FLIGHT INFORMATION

Flight Status: Arrived
Operator: Privately registered:
United States
More flights under this callsign
Pilot: Carlos A. (16805)
Aircraft: CESSNA 172 SKYHAWK
(C172)
More flights by this aircraft type
Origin: KSDM Brown Mun
United States
Destination: KVNY Van Nuys
United States
More flights between these airports :: More routes between these airports
Route: +MZB V23 POPPR SMO125 SMO SMO317 CANOG
File this flight plan on PilotEdge
Remarks:
Altitude:
(Current/Filed)
6,000ft
Speed:
(Current/Filed)
110kts
Departed: 29-Dec-17 12:47 PM
Arrived: 29-Dec-17 03:10 PM
Distance/Time
Traveled:
124nm/2:23
Distance/Time
To Go:
Arrived

Flight Plot

Page will automatically refresh every two minutes.

Flight plan parsing failed; only flown route is shown


Map Options




Map Legend


Flown Route
Filed Route
Departure Airport
Arrival Airport
Navaid (VOR, NDB)
Fix

Horizontal Profiles

Position Reports

Time Latitude Longitude Heading Altitude Ground
Speed
29-Dec-17 11:47 32.571263 -116.992183 10 529ft 0kts
29-Dec-17 11:48 32.571263 -116.992183 10 529ft 0kts
29-Dec-17 11:49 32.571266 -116.992182 10 529ft 0kts
29-Dec-17 11:50 32.571268 -116.992182 10 529ft 0kts
29-Dec-17 11:51 32.571271 -116.992181 10 529ft 0kts
29-Dec-17 11:52 32.571274 -116.992180 10 529ft 0kts
29-Dec-17 11:53 32.571276 -116.992180 10 529ft 0kts
29-Dec-17 11:54 32.571279 -116.992179 10 529ft 0kts
29-Dec-17 11:55 32.571281 -116.992179 10 529ft 0kts
29-Dec-17 11:56 32.571283 -116.992178 10 529ft 0kts
29-Dec-17 11:57 32.571286 -116.992178 10 529ft 0kts
29-Dec-17 11:58 32.571288 -116.992177 10 529ft 0kts
29-Dec-17 11:59 32.571291 -116.992177 10 529ft 0kts
29-Dec-17 12:00 32.571294 -116.992176 10 529ft 0kts
29-Dec-17 12:01 32.571296 -116.992176 10 529ft 0kts
29-Dec-17 12:02 32.571299 -116.992175 10 529ft 0kts
29-Dec-17 12:03 32.571302 -116.992174 10 529ft 0kts
29-Dec-17 12:04 32.571304 -116.992174 10 529ft 0kts
29-Dec-17 12:05 32.571307 -116.992173 10 529ft 0kts
29-Dec-17 12:06 32.571309 -116.992173 10 529ft 0kts
29-Dec-17 12:07 32.571312 -116.992172 10 529ft 0kts
29-Dec-17 12:08 32.571315 -116.992172 10 529ft 0kts
29-Dec-17 12:09 32.571317 -116.992171 10 529ft 0kts
29-Dec-17 12:10 32.571320 -116.992171 10 529ft 0kts
29-Dec-17 12:11 32.571322 -116.992170 10 529ft 0kts
29-Dec-17 12:12 32.571325 -116.992169 10 529ft 0kts
29-Dec-17 12:13 32.571328 -116.992169 10 529ft 0kts
29-Dec-17 12:14 32.571330 -116.992168 10 529ft 0kts
29-Dec-17 12:15 32.571333 -116.992168 10 529ft 0kts
29-Dec-17 12:16 32.571336 -116.992167 10 529ft 0kts
29-Dec-17 12:17 32.571338 -116.992167 10 529ft 0kts
29-Dec-17 12:18 32.571341 -116.992166 10 529ft 0kts
29-Dec-17 12:19 32.571343 -116.992166 10 529ft 0kts
29-Dec-17 12:20 32.571346 -116.992165 10 529ft 0kts
29-Dec-17 12:21 32.571349 -116.992164 10 529ft 0kts
29-Dec-17 12:22 32.571351 -116.992164 10 529ft 0kts
29-Dec-17 12:23 32.571354 -116.992163 10 529ft 0kts
29-Dec-17 12:24 32.571357 -116.992163 10 529ft 0kts
29-Dec-17 12:25 32.571359 -116.992162 9 529ft 0kts
29-Dec-17 12:26 32.571362 -116.992162 9 529ft 0kts
29-Dec-17 12:27 32.571364 -116.992161 9 529ft 0kts
29-Dec-17 12:28 32.571367 -116.992160 9 529ft 0kts
29-Dec-17 12:29 32.571370 -116.992160 9 529ft 0kts
29-Dec-17 12:30 32.571372 -116.992159 9 529ft 0kts
29-Dec-17 12:31 32.571375 -116.992159 9 529ft 0kts
29-Dec-17 12:32 32.571378 -116.992158 9 529ft 0kts
29-Dec-17 12:33 32.571380 -116.992158 9 529ft 0kts
29-Dec-17 12:34 32.571380 -116.992158 9 529ft 0kts
29-Dec-17 12:35 32.571380 -116.992158 9 529ft 0kts
29-Dec-17 12:36 32.571382 -116.992157 9 529ft 0kts
29-Dec-17 12:37 32.571384 -116.992157 9 529ft 0kts
29-Dec-17 12:38 32.571545 -116.992079 28 529ft 1kts
29-Dec-17 12:39 32.571900 -116.990723 107 529ft 7kts
29-Dec-17 12:40 32.571285 -116.988391 97 529ft 9kts
29-Dec-17 12:41 32.570876 -116.984794 94 529ft 10kts
29-Dec-17 12:42 32.570585 -116.981619 95 529ft 12kts
29-Dec-17 12:43 32.570137 -116.976543 110 529ft 13kts
29-Dec-17 12:44 32.569762 -116.971951 95 529ft 14kts
29-Dec-17 12:45 32.569510 -116.968971 95 529ft 5kts
29-Dec-17 12:46 32.570509 -116.968013 3 529ft 4kts
29-Dec-17 12:47 32.570523 -116.968012 2 529ft 0kts
29-Dec-17 12:48 32.570530 -116.968012 2 529ft 0kts
29-Dec-17 12:49 32.570534 -116.968012 2 529ft 0kts
29-Dec-17 12:50 32.570537 -116.968011 2 529ft 0kts
29-Dec-17 12:51 32.570540 -116.968011 2 529ft 0kts
29-Dec-17 12:52 32.571407 -116.967949 1 529ft 11kts
29-Dec-17 12:53 32.572365 -116.976913 271 713ft 69kts
29-Dec-17 12:54 32.579363 -116.998765 292 1311ft 107kts
29-Dec-17 12:55 32.586747 -117.017023 290 2533ft 68kts
29-Dec-17 12:56 32.592619 -117.031617 294 3211ft 67kts
29-Dec-17 12:57 32.598459 -117.047627 294 4078ft 70kts
29-Dec-17 12:58 32.608513 -117.067749 282 5289ft 72kts
29-Dec-17 12:59 32.617469 -117.090572 293 5958ft 89kts
29-Dec-17 13:00 32.630264 -117.122414 307 5993ft 112kts
29-Dec-17 13:01 32.659299 -117.141891 339 5391ft 114kts
29-Dec-17 13:02 32.676437 -117.158788 336 5773ft 83kts
29-Dec-17 13:03 32.699443 -117.160254 330 6004ft 106kts
29-Dec-17 13:04 32.713960 -117.172715 316 5827ft 108kts
29-Dec-17 13:05 32.740832 -117.193248 334 5754ft 125kts
29-Dec-17 13:06 32.763832 -117.217503 291 6066ft 93kts
29-Dec-17 13:07 32.788909 -117.227948 358 5964ft 118kts
29-Dec-17 13:08 32.820287 -117.237384 325 5801ft 102kts
29-Dec-17 13:09 32.843844 -117.252192 321 6020ft 106kts
29-Dec-17 13:10 32.874149 -117.264063 335 5946ft 123kts
29-Dec-17 13:11 32.901186 -117.281339 6 5923ft 104kts
29-Dec-17 13:12 32.929810 -117.286567 333 5846ft 108kts
29-Dec-17 13:13 32.956338 -117.298721 342 5937ft 99kts
29-Dec-17 13:14 32.980524 -117.304805 353 5969ft 102kts
29-Dec-17 13:15 33.008262 -117.308532 338 5990ft 104kts
29-Dec-17 13:16 33.033036 -117.325372 323 6062ft 100kts
29-Dec-17 13:17 33.057391 -117.343230 337 6014ft 105kts
29-Dec-17 13:18 33.085907 -117.351817 340 5976ft 105kts
29-Dec-17 13:19 33.111155 -117.362133 339 6076ft 101kts
29-Dec-17 13:20 33.138377 -117.375864 328 5885ft 114kts
29-Dec-17 13:21 33.164668 -117.399799 315 5419ft 119kts
29-Dec-17 13:22 33.188198 -117.408159 347 6047ft 91kts
29-Dec-17 13:23 33.217438 -117.415288 350 5858ft 102kts
29-Dec-17 13:24 33.243836 -117.413229 3 6000ft 120kts
29-Dec-17 13:25 33.267787 -117.431410 307 5618ft 121kts
29-Dec-17 13:26 33.283416 -117.459958 311 6161ft 102kts
29-Dec-17 13:27 33.299736 -117.492734 293 5843ft 117kts
29-Dec-17 13:28 33.316641 -117.519832 321 5974ft 82kts
29-Dec-17 13:29 33.339333 -117.535140 324 6033ft 98kts
29-Dec-17 13:30 33.360623 -117.554667 313 6130ft 106kts
29-Dec-17 13:31 33.382717 -117.578596 313 5943ft 100kts
29-Dec-17 13:32 33.401596 -117.601395 320 5915ft 92kts
29-Dec-17 13:33 33.421206 -117.622944 312 5985ft 103kts
29-Dec-17 13:34 33.442367 -117.649774 315 5882ft 109kts
29-Dec-17 13:35 33.461927 -117.673614 323 5921ft 102kts
29-Dec-17 13:36 33.484822 -117.692919 321 6113ft 100kts
29-Dec-17 13:37 33.509247 -117.716060 321 5870ft 116kts
29-Dec-17 13:38 33.529907 -117.738199 319 6101ft 101kts
29-Dec-17 13:39 33.555085 -117.759801 324 5986ft 118kts
29-Dec-17 13:40 33.580780 -117.783710 319 5837ft 117kts
29-Dec-17 13:41 33.605273 -117.801389 324 6041ft 100kts
29-Dec-17 13:42 33.630953 -117.822657 324 5911ft 107kts
29-Dec-17 13:43 33.650206 -117.846723 295 6024ft 116kts
29-Dec-17 13:44 33.663112 -117.880505 303 6176ft 97kts
29-Dec-17 13:45 33.673656 -117.913304 288 5963ft 115kts
29-Dec-17 13:46 33.684623 -117.946847 290 6055ft 94kts
29-Dec-17 13:47 33.695343 -117.977824 296 6014ft 104kts
29-Dec-17 13:48 33.706486 -118.009607 296 5955ft 102kts
29-Dec-17 13:49 33.715548 -118.042031 290 6014ft 103kts
29-Dec-17 13:50 33.727235 -118.076620 290 5907ft 105kts
29-Dec-17 13:51 33.738409 -118.109000 295 5909ft 110kts
29-Dec-17 13:52 33.750069 -118.142353 292 5748ft 108kts
29-Dec-17 13:53 33.759240 -118.170659 287 5888ft 84kts
29-Dec-17 13:54 33.767839 -118.199167 292 6082ft 99kts
29-Dec-17 13:55 33.778406 -118.232785 298 6205ft 96kts
29-Dec-17 13:56 33.801265 -118.248005 333 6342ft 98kts
29-Dec-17 13:57 33.828818 -118.263847 332 6105ft 94kts
29-Dec-17 13:58 33.855596 -118.278874 330 6009ft 113kts
29-Dec-17 13:59 33.882430 -118.297613 334 5916ft 97kts
29-Dec-17 14:00 33.906622 -118.311017 335 5972ft 99kts
29-Dec-17 14:01 33.926066 -118.330828 297 6191ft 104kts
29-Dec-17 14:02 33.941038 -118.363909 301 5859ft 105kts
29-Dec-17 14:03 33.954952 -118.394579 313 5781ft 121kts
29-Dec-17 14:04 33.978108 -118.420410 311 5768ft 119kts
29-Dec-17 14:05 34.002002 -118.441232 312 5942ft 114kts
29-Dec-17 14:06 34.024880 -118.467849 311 5858ft 110kts
29-Dec-17 14:07 34.045034 -118.494837 314 5876ft 94kts
29-Dec-17 14:08 34.061544 -118.522522 292 5653ft 111kts
29-Dec-17 14:09 34.074587 -118.551485 320 6003ft 87kts
29-Dec-17 14:10 34.094860 -118.570788 314 6091ft 99kts
29-Dec-17 14:11 34.117061 -118.593133 335 5900ft 115kts
29-Dec-17 14:12 34.146954 -118.590686 1 6091ft 117kts
29-Dec-17 14:13 34.179012 -118.589109 1 5827ft 120kts
29-Dec-17 14:14 34.212396 -118.586567 358 4906ft 110kts
29-Dec-17 14:15 34.241549 -118.584068 352 5004ft 109kts
29-Dec-17 14:16 34.273641 -118.583911 1 5044ft 107kts
29-Dec-17 14:17 34.304262 -118.580532 18 5036ft 122kts
29-Dec-17 14:18 34.336664 -118.570977 0 4722ft 121kts
29-Dec-17 14:19 34.364942 -118.568699 0 4971ft 102kts
29-Dec-17 14:20 34.392476 -118.563376 8 5289ft 99kts
29-Dec-17 14:21 34.424590 -118.566974 348 4972ft 111kts
29-Dec-17 14:22 34.455475 -118.574056 349 4810ft 119kts
29-Dec-17 14:23 34.484373 -118.571606 7 4957ft 113kts
29-Dec-17 14:24 34.509667 -118.557324 75 5220ft 108kts
29-Dec-17 14:25 34.495334 -118.522342 151 4975ft 117kts
29-Dec-17 14:26 34.464667 -118.516678 164 5008ft 111kts
29-Dec-17 14:27 34.435036 -118.509966 176 5248ft 104kts
29-Dec-17 14:28 34.401242 -118.508093 172 4964ft 125kts
29-Dec-17 14:29 34.370223 -118.505360 178 4969ft 102kts
29-Dec-17 14:30 34.341090 -118.503098 178 4068ft 106kts
29-Dec-17 14:31 34.314887 -118.500039 173 3385ft 94kts
29-Dec-17 14:32 34.291201 -118.498227 170 2758ft 76kts
29-Dec-17 14:33 34.267570 -118.496194 170 2140ft 75kts
29-Dec-17 14:34 34.244654 -118.493034 176 1596ft 79kts
29-Dec-17 14:35 34.222392 -118.491958 174 1771ft 72kts
29-Dec-17 14:36 34.206118 -118.503129 219 2587ft 82kts
29-Dec-17 14:37 34.191008 -118.520145 238 3456ft 80kts
29-Dec-17 14:38 34.177885 -118.540859 225 4480ft 79kts
29-Dec-17 14:39 34.154253 -118.559911 214 4581ft 110kts
29-Dec-17 14:40 34.130863 -118.583374 222 4565ft 103kts
29-Dec-17 14:41 34.108974 -118.603772 227 4665ft 100kts
29-Dec-17 14:42 34.088501 -118.630865 234 4512ft 115kts
29-Dec-17 14:43 34.067736 -118.661885 242 3867ft 121kts
29-Dec-17 14:44 34.061118 -118.697681 280 3891ft 82kts
29-Dec-17 14:45 34.064942 -118.721494 270 4721ft 87kts
29-Dec-17 14:46 34.081986 -118.738503 30 5063ft 87kts
29-Dec-17 14:47 34.101282 -118.714204 45 4894ft 107kts
29-Dec-17 14:48 34.120078 -118.689233 44 5050ft 105kts
29-Dec-17 14:49 34.142553 -118.663470 41 5090ft 110kts
29-Dec-17 14:50 34.164484 -118.635598 40 5072ft 109kts
29-Dec-17 14:51 34.189331 -118.611139 44 4780ft 119kts
29-Dec-17 14:52 34.211084 -118.587198 41 5009ft 109kts
29-Dec-17 14:53 34.229791 -118.565236 41 4861ft 117kts
29-Dec-17 14:54 34.250770 -118.534551 50 4955ft 102kts
29-Dec-17 14:55 34.269943 -118.509624 40 5162ft 103kts
29-Dec-17 14:56 34.292476 -118.500779 343 4975ft 110kts
29-Dec-17 14:57 34.319335 -118.510471 339 5040ft 103kts
29-Dec-17 14:58 34.352033 -118.521137 342 5133ft 110kts
29-Dec-17 14:59 34.377474 -118.528884 341 4999ft 112kts
29-Dec-17 15:00 34.403935 -118.536528 344 5223ft 96kts
29-Dec-17 15:01 34.436535 -118.547813 342 5299ft 107kts
29-Dec-17 15:02 34.460779 -118.558431 336 5107ft 108kts
29-Dec-17 15:03 34.489590 -118.568499 345 5135ft 107kts
29-Dec-17 15:04 34.508109 -118.554997 123 5185ft 108kts
29-Dec-17 15:05 34.481373 -118.538468 154 5295ft 116kts
29-Dec-17 15:06 34.450442 -118.520829 162 4847ft 129kts
29-Dec-17 15:07 34.422413 -118.510639 175 5319ft 94kts
29-Dec-17 15:08 34.391458 -118.508776 176 5079ft 100kts
29-Dec-17 15:09 34.362222 -118.504409 180 4547ft 97kts
29-Dec-17 15:10 34.335511 -118.502068 163 4082ft 96kts
29-Dec-17 15:11 34.310236 -118.499525 180 3216ft 88kts
29-Dec-17 15:12 34.286040 -118.498321 172 2613ft 84kts
29-Dec-17 15:13 34.263584 -118.495599 169 2202ft 80kts
29-Dec-17 15:14 34.241586 -118.493720 177 1606ft 80kts
29-Dec-17 15:15 34.221217 -118.491401 174 1032ft 65kts
29-Dec-17 15:16 34.207916 -118.490200 174 805ft 17kts
29-Dec-17 15:17 34.206383 -118.490734 263 805ft 0kts
29-Dec-17 15:18 34.206377 -118.491001 269 805ft 7kts
29-Dec-17 15:19 34.206670 -118.492671 344 805ft 0kts
29-Dec-17 15:20 34.206670 -118.492671 344 805ft 0kts

Navigation Log

Ident Type
Flight plan parsing failed, navigation log unavailable